Time;durP1;ratioP1;P1;durP2;ratioP2;P2;SDS_P1;SDS_P2;PMS_P1;PMS_P2;Temp;Humidity;BMP_temperature;BMP_pressure;BME280_temperature;BME280_humidity;BME280_pressure;Samples;Min_cycle;Max_cycle;Signal;HPM_P1;HPM_P2
2020/12/14 00:00:59;;;;;;;5.53;2.42;;;5.90;88.70;;;;;;4970142;28;20086;-80
2020/12/14 00:03:24;;;;;;;6.03;2.60;;;5.90;88.50;;;;;;4986495;28;20561;-79
2020/12/14 00:05:50;;;;;;;6.53;2.55;;;5.90;88.40;;;;;;4949396;28;20058;-79
2020/12/14 00:08:15;;;;;;;5.70;1.95;;;6.00;88.30;;;;;;4970835;28;20062;-79
2020/12/14 00:10:41;;;;;;;4.30;2.15;;;6.00;88.10;;;;;;4970022;28;20145;-80
2020/12/14 00:13:06;;;;;;;7.40;2.70;;;6.00;88.30;;;;;;4970071;28;20059;-79
2020/12/14 00:15:32;;;;;;;3.42;1.50;;;6.00;88.50;;;;;;4987625;28;20065;-79
2020/12/14 00:17:57;;;;;;;6.55;2.03;;;6.00;88.30;;;;;;4968041;28;20038;-79
2020/12/14 00:20:23;;;;;;;2.60;1.90;;;6.00;88.10;;;;;;4966487;28;20034;-79
2020/12/14 00:23:05;;;;;;;5.15;1.98;;;6.10;88.00;;;;;;4961569;28;20026;-79
2020/12/14 00:25:31;;;;;;;7.85;1.77;;;6.10;88.00;;;;;;4986415;28;20097;-79
2020/12/14 00:27:57;;;;;;;3.95;2.00;;;6.10;87.70;;;;;;4968142;28;20047;-79
2020/12/14 00:30:22;;;;;;;6.05;1.95;;;6.20;87.50;;;;;;4987176;28;20478;-79
2020/12/14 00:32:48;;;;;;;4.38;1.52;;;6.20;87.30;;;;;;4956751;28;20038;-78
2020/12/14 00:35:13;;;;;;;9.70;2.40;;;6.10;87.30;;;;;;4969974;28;20478;-78
2020/12/14 00:37:39;;;;;;;5.70;2.20;;;6.20;87.60;;;;;;4976304;28;20553;-78
2020/12/14 00:40:04;;;;;;;2.80;1.40;;;6.20;87.60;;;;;;4986356;28;20126;-78
2020/12/14 00:42:30;;;;;;;2.88;1.88;;;6.20;87.40;;;;;;4986290;28;20057;-79
2020/12/14 00:44:55;;;;;;;7.57;1.90;;;6.20;87.60;;;;;;4970879;28;20034;-79
2020/12/14 00:47:21;;;;;;;5.88;1.92;;;6.30;87.30;;;;;;4970123;28;20066;-78
2020/12/14 00:49:46;;;;;;;3.90;1.63;;;6.30;87.40;;;;;;4984748;28;20483;-79
2020/12/14 00:52:12;;;;;;;3.08;1.30;;;6.30;87.30;;;;;;4969893;28;20061;-79
2020/12/14 00:54:37;;;;;;;1.92;0.90;;;6.30;87.70;;;;;;4969624;28;20073;-79
2020/12/14 00:57:03;;;;;;;6.68;1.73;;;6.30;87.30;;;;;;4970839;28;20810;-79
2020/12/14 00:59:29;;;;;;;2.22;0.82;;;6.30;87.10;;;;;;4957229;28;20378;-78
2020/12/14 01:01:54;;;;;;;3.40;1.40;;;6.30;87.10;;;;;;4967126;28;20549;-78
2020/12/14 01:04:20;;;;;;;6.45;1.83;;;6.30;87.20;;;;;;4983895;28;20023;-79
2020/12/14 01:06:46;;;;;;;2.90;0.93;;;6.30;87.10;;;;;;4987160;28;20034;-78
2020/12/14 01:09:11;;;;;;;6.53;2.72;;;6.40;87.10;;;;;;4969606;28;20477;-78
2020/12/14 01:11:37;;;;;;;12.32;1.98;;;6.40;86.80;;;;;;4988780;28;20038;-78
2020/12/14 01:14:03;;;;;;;9.93;1.88;;;6.40;86.90;;;;;;4956294;28;20034;-78
2020/12/14 01:16:28;;;;;;;1.63;1.20;;;6.40;87.10;;;;;;4973839;28;20061;-78
2020/12/14 01:18:54;;;;;;;5.70;1.70;;;6.40;87.20;;;;;;4978160;28;20464;-79
2020/12/14 01:21:23;;;;;;;2.72;1.33;;;6.50;86.50;;;;;;4989878;28;20113;-78
2020/12/14 01:23:49;;;;;;;5.60;1.70;;;6.50;86.50;;;;;;4985948;28;20050;-79
2020/12/14 01:26:14;;;;;;;7.10;1.60;;;6.40;86.60;;;;;;4973867;28;20074;-79
2020/12/14 01:28:40;;;;;;;4.30;1.35;;;6.50;86.80;;;;;;4972965;28;20110;-78
2020/12/14 01:31:05;;;;;;;6.10;1.73;;;6.40;86.60;;;;;;4989742;28;20026;-79
2020/12/14 01:33:31;;;;;;;2.85;1.30;;;6.40;86.60;;;;;;4966766;28;20027;-78
2020/12/14 01:35:56;;;;;;;7.10;1.45;;;6.40;86.60;;;;;;4958006;28;20382;-79
2020/12/14 01:38:22;;;;;;;3.67;1.38;;;6.40;86.60;;;;;;4988993;28;20477;-79
2020/12/14 01:40:47;;;;;;;5.18;1.25;;;6.50;87.60;;;;;;4973117;28;20044;-79
2020/12/14 01:43:13;;;;;;;5.97;1.45;;;6.40;86.80;;;;;;4956418;28;20494;-78
2020/12/14 01:45:38;;;;;;;5.95;1.63;;;6.40;86.70;;;;;;4960030;28;20054;-79
2020/12/14 01:48:05;;;;;;;4.85;1.30;;;6.30;86.50;;;;;;4953137;28;20066;-79
2020/12/14 01:50:31;;;;;;;5.30;1.50;;;6.40;86.70;;;;;;4973223;28;20033;-79
2020/12/14 01:52:58;;;;;;;7.10;1.60;;;6.40;86.60;;;;;;4973598;28;20035;-79
2020/12/14 01:55:23;;;;;;;6.95;1.60;;;6.40;86.80;;;;;;4988167;28;20031;-79
2020/12/14 01:57:49;;;;;;;3.92;1.48;;;6.40;87.10;;;;;;4989666;28;20042;-79
2020/12/14 02:00:14;;;;;;;4.25;1.20;;;6.40;86.90;;;;;;4989744;28;20038;-79
2020/12/14 02:02:40;;;;;;;7.15;2.03;;;6.40;87.00;;;;;;4973410;28;22534;-80
2020/12/14 02:05:06;;;;;;;6.50;1.70;;;6.40;86.80;;;;;;4957875;28;20061;-79
2020/12/14 02:07:32;;;;;;;5.18;1.73;;;6.40;86.70;;;;;;4960689;28;20046;-79
2020/12/14 02:09:57;;;;;;;3.22;1.50;;;6.40;86.60;;;;;;4973417;28;20030;-79
2020/12/14 02:12:23;;;;;;;5.15;1.50;;;6.40;86.80;;;;;;4973532;28;20054;-79
2020/12/14 02:14:51;;;;;;;5.32;1.67;;;6.40;86.60;;;;;;4972606;28;20034;-79
2020/12/14 02:17:18;;;;;;;4.22;1.33;;;6.40;87.10;;;;;;4973724;28;20041;-78
2020/12/14 02:19:45;;;;;;;4.85;1.30;;;6.40;86.90;;;;;;4973339;28;20030;-79
2020/12/14 02:22:10;;;;;;;4.88;1.52;;;6.30;86.60;;;;;;4989711;28;20121;-79
2020/12/14 02:24:36;;;;;;;4.13;1.40;;;6.30;87.10;;;;;;4956775;28;20518;-78
2020/12/14 02:27:01;;;;;;;3.40;1.38;;;6.40;87.10;;;;;;4973138;28;20113;-79
2020/12/14 02:29:27;;;;;;;4.65;1.10;;;6.40;86.90;;;;;;4973221;28;20489;-79
2020/12/14 02:31:52;;;;;;;3.55;1.27;;;6.40;86.90;;;;;;4963144;28;20033;-79
2020/12/14 02:34:18;;;;;;;3.83;1.20;;;6.40;86.80;;;;;;4955597;28;20035;-79
2020/12/14 02:36:43;;;;;;;6.05;1.00;;;6.40;86.80;;;;;;4988696;28;20030;-79
2020/12/14 02:39:09;;;;;;;5.88;1.55;;;6.30;86.80;;;;;;4973139;28;20169;-79
2020/12/14 02:41:35;;;;;;;3.92;1.10;;;6.40;87.00;;;;;;4974555;28;20114;-79
2020/12/14 02:44:00;;;;;;;4.10;1.00;;;6.30;86.50;;;;;;4972593;28;20034;-79
2020/12/14 02:46:26;;;;;;;3.47;1.52;;;6.30;86.90;;;;;;4972750;28;20042;-79
2020/12/14 02:48:51;;;;;;;4.32;1.23;;;6.30;87.00;;;;;;4988243;28;20038;-79
2020/12/14 02:51:18;;;;;;;4.28;1.38;;;6.30;87.10;;;;;;4972231;28;20039;-79
2020/12/14 02:53:43;;;;;;;2.97;1.27;;;6.30;87.30;;;;;;4972095;28;20038;-79
2020/12/14 02:56:09;;;;;;;3.53;1.35;;;6.30;87.40;;;;;;4988873;28;20133;-79
2020/12/14 02:58:34;;;;;;;6.47;1.30;;;6.30;87.20;;;;;;4972581;28;20026;-79
2020/12/14 03:01:00;;;;;;;5.03;1.45;;;6.30;87.20;;;;;;4988228;28;20100;-78
2020/12/14 03:03:25;;;;;;;3.15;1.25;;;6.30;87.10;;;;;;4971268;28;20076;-78
2020/12/14 03:05:51;;;;;;;6.22;1.45;;;6.30;87.40;;;;;;4971220;28;20080;-78
2020/12/14 03:08:16;;;;;;;4.90;0.90;;;6.40;87.20;;;;;;4957399;28;20030;-78
2020/12/14 03:10:42;;;;;;;3.63;0.70;;;6.40;87.30;;;;;;4972056;28;20413;-78
2020/12/14 03:13:07;;;;;;;3.80;1.13;;;6.40;87.10;;;;;;4973110;28;20030;-78
2020/12/14 03:15:33;;;;;;;2.17;0.52;;;6.40;87.20;;;;;;4964158;28;20038;-79
2020/12/14 03:17:58;;;;;;;2.45;1.10;;;6.40;87.20;;;;;;4960284;28;20053;-78
2020/12/14 03:20:24;;;;;;;3.58;1.77;;;6.40;87.10;;;;;;4972262;28;20165;-78
2020/12/14 03:22:49;;;;;;;3.20;1.42;;;6.40;87.10;;;;;;4972249;28;20084;-79
2020/12/14 03:25:15;;;;;;;13.32;1.13;;;6.40;87.50;;;;;;4955634;28;20110;-78
2020/12/14 03:27:40;;;;;;;3.80;1.30;;;6.50;87.40;;;;;;4972019;28;20172;-78
2020/12/14 03:30:06;;;;;;;3.97;1.17;;;6.50;87.20;;;;;;4978924;28;20061;-79
2020/12/14 03:32:31;;;;;;;2.05;0.88;;;6.50;87.40;;;;;;4988344;28;20121;-78
2020/12/14 03:34:57;;;;;;;2.58;0.80;;;6.50;87.60;;;;;;4969517;28;20133;-78
2020/12/14 03:37:24;;;;;;;3.50;1.13;;;6.50;87.70;;;;;;4957202;28;20113;-78
2020/12/14 03:39:50;;;;;;;5.07;1.13;;;6.50;87.50;;;;;;4970746;28;20410;-78
2020/12/14 03:42:16;;;;;;;2.25;0.70;;;6.60;87.60;;;;;;4971997;28;20034;-79
2020/12/14 03:44:42;;;;;;;2.85;1.02;;;6.60;87.70;;;;;;4987460;28;20682;-79
2020/12/14 03:47:09;;;;;;;8.82;1.25;;;6.60;87.70;;;;;;4954419;28;20037;-79
2020/12/14 03:49:34;;;;;;;1.70;0.47;;;6.70;87.90;;;;;;4959316;28;20050;-79
2020/12/14 03:52:00;;;;;;;3.03;0.75;;;6.70;87.90;;;;;;4958134;28;20064;-79
2020/12/14 03:54:25;;;;;;;2.33;1.10;;;6.70;87.80;;;;;;4971143;28;20045;-79
2020/12/14 03:56:51;;;;;;;3.88;1.13;;;6.80;87.90;;;;;;4964267;28;20089;-79
2020/12/14 03:59:16;;;;;;;3.25;0.93;;;6.80;87.80;;;;;;4957627;28;20022;-79
2020/12/14 04:01:44;;;;;;;5.13;1.10;;;6.80;87.80;;;;;;4970933;28;20031;-78
2020/12/14 04:04:10;;;;;;;2.72;0.82;;;6.80;87.70;;;;;;4970645;28;20026;-78
2020/12/14 04:06:35;;;;;;;4.28;1.42;;;6.80;87.90;;;;;;4986866;28;20069;-79
2020/12/14 04:09:01;;;;;;;3.00;0.80;;;6.80;87.80;;;;;;4986829;28;20034;-78
2020/12/14 04:11:27;;;;;;;3.30;1.35;;;6.80;87.90;;;;;;4963187;28;20026;-79
2020/12/14 04:13:52;;;;;;;2.92;0.98;;;6.80;88.00;;;;;;4973246;28;20069;-78
2020/12/14 04:16:18;;;;;;;2.22;0.98;;;6.80;88.60;;;;;;4962898;28;20162;-78
2020/12/14 04:18:43;;;;;;;1.67;1.02;;;6.80;87.90;;;;;;4985473;28;20027;-78
2020/12/14 04:21:09;;;;;;;1.27;1.08;;;6.80;88.10;;;;;;4971603;28;20077;-78
2020/12/14 04:23:35;;;;;;;2.38;0.85;;;6.80;88.00;;;;;;4971277;28;20049;-78
2020/12/14 04:26:01;;;;;;;7.70;1.35;;;6.90;88.00;;;;;;4971270;28;20555;-78
2020/12/14 04:28:26;;;;;;;1.08;0.80;;;6.90;87.80;;;;;;4961095;28;20022;-79
2020/12/14 04:30:52;;;;;;;3.15;1.00;;;6.90;87.90;;;;;;4959452;28;20038;-78
2020/12/14 04:33:17;;;;;;;9.10;1.13;;;6.90;88.60;;;;;;4985256;28;20141;-79
2020/12/14 04:35:43;;;;;;;4.03;1.35;;;7.00;88.10;;;;;;4986867;28;20081;-79
2020/12/14 04:38:08;;;;;;;5.50;1.00;;;6.90;88.00;;;;;;4971213;28;20026;-78
2020/12/14 04:40:34;;;;;;;3.95;0.95;;;7.00;88.20;;;;;;4971017;28;20034;-79
2020/12/14 04:43:00;;;;;;;4.65;0.98;;;7.00;88.00;;;;;;4970798;28;20072;-78
2020/12/14 04:45:26;;;;;;;1.05;0.60;;;7.00;88.10;;;;;;4962753;28;20069;-79
2020/12/14 04:47:58;;;;;;;3.80;1.13;;;7.00;87.90;;;;;;4972319;28;20042;-79
2020/12/14 04:50:24;;;;;;;2.08;0.80;;;7.10;88.10;;;;;;4958622;28;20096;-79
2020/12/14 04:52:51;;;;;;;2.88;0.90;;;7.10;88.20;;;;;;4974322;28;20061;-79
2020/12/14 04:55:23;;;;;;;1.60;0.80;;;7.10;88.10;;;;;;4957189;28;20100;-79
2020/12/14 04:57:49;;;;;;;2.17;1.17;;;7.10;88.30;;;;;;4974165;28;20030;-79
2020/12/14 05:00:15;;;;;;;2.25;0.85;;;7.10;88.30;;;;;;4974338;28;20038;-79
2020/12/14 05:02:41;;;;;;;3.58;1.13;;;7.10;88.30;;;;;;4982362;28;20125;-79
2020/12/14 05:05:13;;;;;;;2.00;1.10;;;7.10;88.30;;;;;;4973617;28;20102;-78
2020/12/14 05:07:42;;;;;;;3.03;0.75;;;7.10;88.60;;;;;;4972325;28;20049;-79
2020/12/14 05:10:08;;;;;;;5.07;1.35;;;7.10;88.60;;;;;;4972863;28;20045;-78
2020/12/14 05:12:43;;;;;;;2.50;0.88;;;7.10;88.60;;;;;;4989291;28;20041;-78
2020/12/14 05:15:19;;;;;;;3.75;0.88;;;7.10;88.70;;;;;;4989557;28;20034;-79
2020/12/14 05:17:45;;;;;;;4.05;0.85;;;7.10;88.90;;;;;;4976475;28;20046;-79
2020/12/14 05:20:15;;;;;;;4.75;0.95;;;7.00;88.70;;;;;;4974725;28;20053;-78
2020/12/14 05:22:57;;;;;;;4.85;1.17;;;7.00;88.90;;;;;;4987961;28;20045;-79
2020/12/14 05:25:23;;;;;;;3.00;1.20;;;7.00;88.90;;;;;;4986651;28;20038;-78
2020/12/14 05:27:49;;;;;;;1.75;1.02;;;7.00;89.00;;;;;;4973711;28;20038;-79
2020/12/14 05:30:15;;;;;;;2.47;0.95;;;7.00;89.20;;;;;;4973416;28;20030;-78
2020/12/14 05:32:40;;;;;;;4.70;1.42;;;6.90;89.20;;;;;;4966333;28;20653;-79
2020/12/14 05:35:12;;;;;;;1.75;0.63;;;7.00;89.30;;;;;;4988960;28;20045;-78
2020/12/14 05:37:38;;;;;;;2.28;1.23;;;7.00;89.30;;;;;;4955833;28;20027;-78
2020/12/14 05:40:10;;;;;;;3.60;1.35;;;7.00;89.50;;;;;;4971764;28;20062;-79
2020/12/14 05:42:40;;;;;;;4.68;1.15;;;7.00;89.60;;;;;;4973608;28;20062;-78
2020/12/14 05:45:10;;;;;;;4.47;1.20;;;7.00;89.60;;;;;;4989193;28;20095;-78
2020/12/14 05:47:35;;;;;;;3.25;1.73;;;7.00;89.70;;;;;;4973060;28;20034;-78
2020/12/14 05:50:03;;;;;;;3.80;1.52;;;7.00;90.00;;;;;;4973106;28;20030;-79
2020/12/14 05:52:31;;;;;;;2.38;0.60;;;7.00;90.00;;;;;;4972934;28;20030;-78
2020/12/14 05:54:57;;;;;;;2.30;1.00;;;7.00;90.00;;;;;;4972361;28;20100;-79
2020/12/14 05:57:38;;;;;;;4.82;1.40;;;7.00;90.00;;;;;;4973682;28;20049;-78
2020/12/14 06:00:06;;;;;;;2.13;1.00;;;7.00;90.10;;;;;;4988009;28;20072;-79
2020/12/14 06:02:31;;;;;;;4.65;1.10;;;6.90;90.10;;;;;;4990017;28;20111;-79
2020/12/14 06:04:58;;;;;;;4.60;2.35;;;7.00;90.50;;;;;;4973483;28;20122;-79
2020/12/14 06:07:25;;;;;;;6.45;1.75;;;7.00;90.20;;;;;;4970583;28;20483;-78
2020/12/14 06:10:04;;;;;;;5.25;1.30;;;7.00;90.20;;;;;;4971527;28;20034;-78
2020/12/14 06:12:30;;;;;;;5.10;1.10;;;7.10;90.20;;;;;;4969903;28;20027;-77
2020/12/14 06:15:06;;;;;;;3.67;1.25;;;7.00;90.30;;;;;;4972664;28;20034;-78
2020/12/14 06:17:32;;;;;;;5.10;1.35;;;7.00;90.30;;;;;;4969211;28;20548;-79
2020/12/14 06:20:07;;;;;;;2.53;0.98;;;7.10;90.40;;;;;;4959722;28;20034;-78
2020/12/14 06:22:32;;;;;;;0.83;0.63;;;7.00;90.30;;;;;;4988850;28;20034;-78
2020/12/14 06:24:59;;;;;;;2.65;1.08;;;7.10;90.30;;;;;;4963813;28;20049;-79
2020/12/14 06:27:26;;;;;;;2.22;1.30;;;7.10;90.30;;;;;;4989160;28;20042;-78
2020/12/14 06:29:51;;;;;;;1.65;1.10;;;7.10;90.40;;;;;;4955664;28;20027;-79
2020/12/14 06:32:37;;;;;;;3.30;1.13;;;7.10;90.40;;;;;;4956444;28;20613;-78
2020/12/14 06:35:15;;;;;;;2.13;0.88;;;7.10;90.50;;;;;;4968984;28;20573;-79
2020/12/14 06:37:54;;;;;;;2.53;1.17;;;7.10;90.50;;;;;;4972127;28;20430;-79
2020/12/14 06:40:20;;;;;;;3.08;0.73;;;7.00;90.60;;;;;;4970835;28;20030;-79
2020/12/14 06:42:46;;;;;;;3.17;1.30;;;7.00;90.60;;;;;;4641134;28;9999671;-78
2020/12/14 06:45:12;;;;;;;4.43;1.33;;;7.10;90.70;;;;;;4955224;28;20038;-79
2020/12/14 06:47:48;;;;;;;1.30;0.75;;;7.10;90.70;;;;;;4951611;28;20470;-79
2020/12/14 06:50:41;;;;;;;;;;;7.10;90.70;;;;;;4972693;28;20113;-79
2020/12/14 06:53:41;;;;;;;4.18;1.33;;;7.20;90.70;;;;;;4987661;28;19909;-78
2020/12/14 06:56:07;;;;;;;3.53;1.10;;;7.20;90.70;;;;;;4989614;28;20122;-78
2020/12/14 06:58:41;;;;;;;1.52;1.00;;;7.20;90.60;;;;;;4980620;28;20065;-79
2020/12/14 07:01:35;;;;;;;2.22;0.90;;;7.20;90.60;;;;;;4988509;28;20432;-78
2020/12/14 07:04:31;;;;;;;3.83;1.25;;;7.20;90.60;;;;;;4969084;28;20039;-79
2020/12/14 07:07:24;;;;;;;1.83;1.15;;;7.20;90.70;;;;;;4988562;28;20516;-79
2020/12/14 07:09:49;;;;;;;4.20;1.40;;;7.30;90.80;;;;;;4984278;28;20041;-79
2020/12/14 07:12:15;;;;;;;2.28;1.20;;;7.30;90.80;;;;;;4956140;28;20022;-79
2020/12/14 07:14:53;;;;;;;3.20;1.02;;;7.30;90.80;;;;;;4989117;28;20493;-79
2020/12/14 07:17:22;;;;;;;3.42;1.05;;;7.30;90.80;;;;;;4971088;28;20027;-79
2020/12/14 07:19:54;;;;;;;2.38;1.10;;;7.30;90.80;;;;;;4940960;28;20061;-79
2020/12/14 07:22:20;;;;;;;5.93;1.27;;;7.40;90.90;;;;;;4956993;28;20038;-79
2020/12/14 07:24:58;;;;;;;2.83;1.10;;;7.30;90.90;;;;;;4988435;28;20588;-79
2020/12/14 07:27:23;;;;;;;1.85;1.00;;;7.40;90.90;;;;;;4970176;28;20046;-79
2020/12/14 07:29:49;;;;;;;1.85;0.60;;;7.40;90.90;;;;;;4972297;28;20033;-79
2020/12/14 07:32:14;;;;;;;4.25;1.48;;;7.40;91.00;;;;;;4971905;28;20096;-79
2020/12/14 07:34:53;;;;;;;1.50;1.02;;;7.40;91.10;;;;;;4959573;28;20112;-79
2020/12/14 07:37:22;;;;;;;4.82;1.25;;;7.50;91.10;;;;;;4972000;28;20184;-79
2020/12/14 07:39:48;;;;;;;3.10;1.05;;;7.50;91.20;;;;;;4959110;28;20064;-79
2020/12/14 07:42:30;;;;;;;1.80;1.17;;;7.50;91.10;;;;;;4972139;28;20038;-79
2020/12/14 07:45:08;;;;;;;4.13;1.00;;;7.60;91.20;;;;;;4973376;28;20593;-79
2020/12/14 07:47:33;;;;;;;4.13;0.90;;;7.50;91.20;;;;;;4968114;28;20129;-78
2020/12/14 07:50:09;;;;;;;2.15;0.85;;;7.50;91.20;;;;;;4986822;28;20569;-78
2020/12/14 07:52:35;;;;;;;4.45;0.57;;;7.60;91.30;;;;;;4971252;28;20062;-78
2020/12/14 07:55:04;;;;;;;4.88;1.38;;;7.60;91.50;;;;;;4971042;28;20111;-78
2020/12/14 07:57:32;;;;;;;2.25;1.35;;;7.60;91.40;;;;;;4971457;28;20046;-78
2020/12/14 07:59:59;;;;;;;2.42;1.13;;;7.60;91.90;;;;;;4955717;28;20042;-78
2020/12/14 08:02:29;;;;;;;2.55;1.20;;;7.60;91.70;;;;;;4971294;28;20521;-78
2020/12/14 08:05:02;;;;;;;2.60;1.20;;;7.60;92.00;;;;;;4953554;28;20468;-78
2020/12/14 08:07:31;;;;;;;1.33;1.00;;;7.60;92.10;;;;;;4969345;28;20038;-78
2020/12/14 08:09:57;;;;;;;7.22;1.48;;;7.60;92.30;;;;;;4955041;28;20057;-77
2020/12/14 08:12:23;;;;;;;1.42;0.82;;;7.60;92.40;;;;;;4970272;28;20053;-77
2020/12/14 08:14:54;;;;;;;7.75;1.42;;;7.60;92.50;;;;;;4970633;28;20715;-77
2020/12/14 08:17:19;;;;;;;2.03;1.00;;;7.60;92.60;;;;;;4969599;28;20154;-77
2020/12/14 08:19:47;;;;;;;5.78;1.92;;;7.60;92.70;;;;;;4970598;28;20126;-77
2020/12/14 08:22:12;;;;;;;1.75;1.02;;;7.60;92.80;;;;;;4972116;28;20065;-77
2020/12/14 08:24:38;;;;;;;2.83;1.17;;;7.50;92.70;;;;;;4971143;28;20050;-77
2020/12/14 08:27:08;;;;;;;1.85;0.90;;;7.50;93.00;;;;;;4958540;28;20375;-77
2020/12/14 08:29:35;;;;;;;4.25;1.90;;;7.50;93.10;;;;;;4973935;28;20034;-76
2020/12/14 08:32:01;;;;;;;4.10;1.48;;;7.50;93.20;;;;;;4974195;28;20121;-77
2020/12/14 08:34:36;;;;;;;2.13;1.25;;;7.50;93.30;;;;;;4973192;28;20031;-76
2020/12/14 08:37:03;;;;;;;1.50;1.20;;;7.50;93.30;;;;;;4958279;28;20034;-78
2020/12/14 08:39:36;;;;;;;3.60;1.45;;;7.50;93.40;;;;;;4974609;28;20337;-77
2020/12/14 08:42:11;;;;;;;4.53;1.38;;;7.40;93.40;;;;;;4957656;28;20047;-78
2020/12/14 08:44:38;;;;;;;4.95;1.55;;;7.50;93.50;;;;;;4990885;28;20026;-78
2020/12/14 08:47:11;;;;;;;3.97;1.48;;;7.50;93.50;;;;;;4975338;28;20042;-79
2020/12/14 08:49:36;;;;;;;2.42;1.10;;;7.50;93.60;;;;;;4974857;28;20041;-78
2020/12/14 08:52:02;;;;;;;1.33;1.05;;;7.50;93.60;;;;;;4974559;28;20481;-79
2020/12/14 08:54:27;;;;;;;1.77;1.15;;;7.50;93.50;;;;;;4967515;28;20526;-79
2020/12/14 08:56:53;;;;;;;2.85;1.70;;;7.50;93.60;;;;;;4990989;28;20057;-78
2020/12/14 08:59:18;;;;;;;4.40;1.92;;;7.50;93.60;;;;;;4974992;28;20037;-78
2020/12/14 09:02:04;;;;;;;5.45;2.30;;;7.50;93.70;;;;;;4960426;28;20106;-78
2020/12/14 09:04:39;;;;;;;5.22;1.70;;;7.50;93.80;;;;;;4973670;28;20035;-78
2020/12/14 09:07:05;;;;;;;1.83;1.50;;;7.60;93.50;;;;;;4956311;28;20049;-78
2020/12/14 09:09:35;;;;;;;3.92;1.30;;;7.60;93.60;;;;;;4990387;28;20382;-77
2020/12/14 09:12:02;;;;;;;4.53;1.48;;;7.60;93.70;;;;;;4971934;28;20034;-77
2020/12/14 09:14:31;;;;;;;3.38;1.50;;;7.60;93.60;;;;;;4969276;28;20121;-78
2020/12/14 09:17:01;;;;;;;4.53;1.80;;;7.60;93.70;;;;;;4990735;28;20030;-78
2020/12/14 09:19:31;;;;;;;2.63;1.48;;;7.60;93.80;;;;;;4990390;28;20065;-78
2020/12/14 09:21:57;;;;;;;3.22;1.95;;;7.70;93.70;;;;;;4974275;28;20081;-78
2020/12/14 09:24:49;;;;;;;2.50;1.25;;;7.70;94.00;;;;;;4973259;28;20034;-78
2020/12/14 09:27:14;;;;;;;2.83;1.90;;;7.70;94.00;;;;;;4989383;28;20034;-78
2020/12/14 09:29:41;;;;;;;4.22;1.73;;;7.80;93.90;;;;;;4959964;28;20033;-77
2020/12/14 09:32:07;;;;;;;3.33;1.40;;;7.80;93.90;;;;;;4957324;28;20394;-78
2020/12/14 09:34:34;;;;;;;4.63;1.60;;;7.90;94.00;;;;;;4989167;28;20988;-78
2020/12/14 09:37:00;;;;;;;3.05;1.17;;;7.90;94.00;;;;;;4974562;28;20038;-78
2020/12/14 09:39:26;;;;;;;4.18;1.65;;;8.00;93.90;;;;;;4960557;28;20485;-78
2020/12/14 09:41:52;;;;;;;3.00;1.42;;;8.00;94.00;;;;;;4974298;28;20528;-78
2020/12/14 09:44:22;;;;;;;2.08;1.20;;;8.00;93.90;;;;;;4960936;28;20035;-78
2020/12/14 09:46:48;;;;;;;2.40;1.30;;;8.00;93.80;;;;;;4973806;28;20470;-78
2020/12/14 09:49:13;;;;;;;3.75;1.27;;;8.10;94.00;;;;;;4973721;28;20072;-79
2020/12/14 09:51:39;;;;;;;3.50;1.17;;;8.20;94.10;;;;;;4973750;28;20088;-79
2020/12/14 09:54:05;;;;;;;2.85;1.75;;;8.20;94.10;;;;;;4973681;28;20041;-79
2020/12/14 09:56:31;;;;;;;7.47;1.83;;;8.30;94.20;;;;;;4988660;28;20446;-79
2020/12/14 09:58:57;;;;;;;2.63;1.48;;;8.30;94.10;;;;;;4958595;28;20030;-79
2020/12/14 10:01:24;;;;;;;0.85;0.65;;;8.30;94.10;;;;;;4958699;28;20034;-78
2020/12/14 10:03:52;;;;;;;2.65;1.55;;;8.20;94.00;;;;;;4956784;28;20359;-79
2020/12/14 10:06:18;;;;;;;5.10;1.65;;;8.30;94.10;;;;;;4972786;28;20047;-79
2020/12/14 10:08:43;;;;;;;4.75;2.42;;;8.30;94.20;;;;;;4988957;28;20043;-79
2020/12/14 10:11:09;;;;;;;1.95;1.30;;;8.30;94.30;;;;;;4982886;28;20035;-78
2020/12/14 10:13:35;;;;;;;3.40;1.95;;;8.30;94.10;;;;;;4972866;28;20035;-78
2020/12/14 10:16:01;;;;;;;2.20;1.30;;;8.30;94.20;;;;;;4955697;28;20038;-78
2020/12/14 10:18:34;;;;;;;2.88;1.60;;;8.30;94.30;;;;;;4970443;28;20038;-78
2020/12/14 10:21:00;;;;;;;3.75;1.45;;;8.30;94.30;;;;;;4972709;28;20042;-79
2020/12/14 10:23:26;;;;;;;2.53;1.50;;;8.30;94.30;;;;;;4971409;28;20038;-78
2020/12/14 10:25:51;;;;;;;3.30;1.90;;;8.40;94.30;;;;;;4972319;28;20042;-78
2020/12/14 10:28:17;;;;;;;4.68;1.77;;;8.40;94.40;;;;;;4970251;28;20030;-78
2020/12/14 10:30:43;;;;;;;4.80;1.50;;;8.40;94.40;;;;;;4977317;28;20037;-78
2020/12/14 10:33:08;;;;;;;4.60;1.65;;;8.50;94.30;;;;;;4988195;28;20185;-79
2020/12/14 10:35:34;;;;;;;4.53;3.15;;;8.40;94.10;;;;;;4958545;28;20113;-79
2020/12/14 10:37:59;;;;;;;5.53;2.10;;;8.50;94.30;;;;;;4971125;28;20035;-79
2020/12/14 10:40:28;;;;;;;6.35;2.00;;;8.50;94.20;;;;;;4988611;28;20037;-78
2020/12/14 10:42:54;;;;;;;1.98;1.45;;;8.50;94.20;;;;;;4971509;28;20032;-78
2020/12/14 10:45:20;;;;;;;5.05;2.05;;;8.50;94.10;;;;;;4954739;28;20034;-79
2020/12/14 10:47:45;;;;;;;6.38;1.60;;;8.70;94.20;;;;;;4971386;28;20830;-78
2020/12/14 10:50:11;;;;;;;3.08;1.95;;;8.60;94.20;;;;;;4987509;28;20031;-78
2020/12/14 10:52:37;;;;;;;2.65;2.00;;;8.50;94.20;;;;;;4985274;28;20038;-77
2020/12/14 10:55:03;;;;;;;3.97;2.38;;;8.50;94.20;;;;;;4986715;28;20153;-77
2020/12/14 10:57:29;;;;;;;5.75;2.67;;;8.50;94.30;;;;;;4987178;28;20429;-77
2020/12/14 11:00:03;;;;;;;7.68;2.15;;;8.50;94.40;;;;;;4968301;28;20463;-77
2020/12/14 11:02:29;;;;;;;6.00;2.92;;;8.50;94.40;;;;;;4969503;28;20042;-79
2020/12/14 11:04:54;;;;;;;1.73;1.10;;;8.50;94.50;;;;;;4971238;28;20042;-78
2020/12/14 11:07:20;;;;;;;4.00;1.95;;;8.50;94.40;;;;;;4959124;28;20045;-77
2020/12/14 11:09:47;;;;;;;5.18;2.50;;;8.50;94.40;;;;;;4969526;28;20048;-78
2020/12/14 11:12:16;;;;;;;2.90;1.05;;;8.60;94.50;;;;;;4971038;28;20501;-78
2020/12/14 11:14:41;;;;;;;5.85;2.03;;;8.60;94.40;;;;;;4973524;28;20034;-78
2020/12/14 11:17:09;;;;;;;4.95;1.70;;;8.60;94.60;;;;;;4986995;28;20521;-78
2020/12/14 11:19:36;;;;;;;5.22;1.85;;;8.60;94.50;;;;;;4969994;28;20077;-78
2020/12/14 11:22:11;;;;;;;3.47;1.45;;;8.60;94.40;;;;;;4969678;28;20022;-78
2020/12/14 11:24:36;;;;;;;4.32;2.30;;;8.60;94.50;;;;;;4968390;28;20398;-78
2020/12/14 11:27:02;;;;;;;5.15;2.03;;;8.60;94.50;;;;;;4986976;28;20037;-78
2020/12/14 11:29:27;;;;;;;5.72;2.53;;;8.70;94.70;;;;;;4971866;28;20019;-78
2020/12/14 11:31:53;;;;;;;3.78;1.92;;;8.70;94.50;;;;;;4987554;28;20025;-78
2020/12/14 11:34:19;;;;;;;5.50;1.80;;;8.70;94.30;;;;;;4970045;28;20026;-79
2020/12/14 11:36:44;;;;;;;7.10;2.20;;;8.70;94.40;;;;;;4961463;28;20134;-79
2020/12/14 11:39:10;;;;;;;4.65;2.50;;;8.70;94.40;;;;;;4954697;28;20081;-79
2020/12/14 11:41:46;;;;;;;4.10;1.35;;;8.70;94.40;;;;;;4970618;28;20110;-79
2020/12/14 11:44:11;;;;;;;4.22;1.60;;;8.70;94.30;;;;;;4985586;28;20039;-78
2020/12/14 11:46:52;;;;;;;4.60;2.25;;;8.70;94.40;;;;;;4969751;28;20363;-79
2020/12/14 11:49:18;;;;;;;4.32;2.00;;;8.80;94.40;;;;;;4970411;28;20610;-79
2020/12/14 11:51:44;;;;;;;5.28;2.17;;;8.80;94.30;;;;;;4970257;28;20482;-79
2020/12/14 11:54:09;;;;;;;3.63;2.10;;;8.80;94.40;;;;;;4951017;28;20089;-79
2020/12/14 11:56:35;;;;;;;5.43;2.17;;;8.90;94.40;;;;;;4969537;28;20035;-78
2020/12/14 11:59:00;;;;;;;5.43;2.60;;;8.80;94.40;;;;;;4960123;28;20045;-78
2020/12/14 12:01:26;;;;;;;2.83;1.73;;;8.90;94.60;;;;;;4979780;28;20034;-79
2020/12/14 12:03:52;;;;;;;4.13;2.03;;;8.90;94.30;;;;;;4954249;28;20355;-78
2020/12/14 12:06:17;;;;;;;6.38;2.35;;;8.90;94.40;;;;;;4954143;28;20137;-78
2020/12/14 12:08:43;;;;;;;6.35;2.28;;;8.90;94.30;;;;;;4956616;28;20042;-79
2020/12/14 12:11:12;;;;;;;4.53;2.83;;;9.00;94.30;;;;;;4971436;28;20049;-79
2020/12/14 12:13:38;;;;;;;8.73;2.50;;;9.00;94.20;;;;;;4970752;28;20170;-79
2020/12/14 12:16:05;;;;;;;3.17;2.08;;;8.90;94.10;;;;;;4954437;28;20492;-78
2020/12/14 12:18:31;;;;;;;4.32;2.47;;;9.00;94.20;;;;;;4968641;28;20074;-78
2020/12/14 12:20:56;;;;;;;2.88;1.90;;;9.00;94.30;;;;;;4970330;28;20664;-78
2020/12/14 12:23:22;;;;;;;4.15;2.15;;;9.00;94.20;;;;;;4985546;28;20077;-79
2020/12/14 12:25:47;;;;;;;4.80;2.17;;;9.00;94.20;;;;;;4968668;28;20084;-79
2020/12/14 12:28:14;;;;;;;6.97;2.33;;;9.10;94.10;;;;;;4954170;28;20034;-79
2020/12/14 12:30:45;;;;;;;6.55;2.70;;;9.10;94.10;;;;;;4969951;28;20088;-79
2020/12/14 12:33:11;;;;;;;8.50;2.47;;;9.10;94.20;;;;;;4970723;28;20030;-80
2020/12/14 12:35:36;;;;;;;3.90;2.15;;;9.30;94.50;;;;;;4970350;28;20114;-79
2020/12/14 12:38:02;;;;;;;4.40;2.63;;;9.50;94.70;;;;;;4970169;28;20109;-79
2020/12/14 12:40:27;;;;;;;7.82;2.30;;;9.70;94.40;;;;;;4971231;28;20034;-79
2020/12/14 12:42:53;;;;;;;5.25;1.98;;;9.80;94.80;;;;;;4971422;28;20081;-79
2020/12/14 12:45:18;;;;;;;5.55;2.10;;;10.10;93.80;;;;;;4969120;28;20060;-79
2020/12/14 12:47:44;;;;;;;4.55;2.20;;;10.20;94.30;;;;;;4985155;28;20088;-79
2020/12/14 12:50:10;;;;;;;5.00;2.80;;;10.30;93.60;;;;;;4969975;28;20599;-79
2020/12/14 12:52:35;;;;;;;3.47;2.17;;;10.60;94.40;;;;;;4969226;28;20107;-79
2020/12/14 12:55:01;;;;;;;7.45;2.42;;;10.50;93.60;;;;;;4984877;28;20038;-79
2020/12/14 12:57:29;;;;;;;2.35;1.92;;;10.80;94.00;;;;;;4977356;28;20030;-79
2020/12/14 12:59:55;;;;;;;2.85;1.80;;;10.70;93.00;;;;;;4968723;28;20038;-79